Time;durP1;ratioP1;P1;durP2;ratioP2;P2;SDS_P1;SDS_P2;PMS_P1;PMS_P2;Temp;Humidity;BMP_temperature;BMP_pressure;BME280_temperature;BME280_humidity;BME280_pressure;Samples;Min_cycle;Max_cycle;Signal;HPM_P1;HPM_P2
2022/10/10 00:00:42;;;;;;;0.10;0.10;;;11.20;99.90;;;;;;5032025;28;20693;-61
2022/10/10 00:03:08;;;;;;;0.00;0.00;;;11.10;99.90;;;;;;5031232;28;20182;-60
2022/10/10 00:05:35;;;;;;;0.05;0.05;;;11.10;99.90;;;;;;5031893;28;20711;-60
2022/10/10 00:08:01;;;;;;;0.00;0.00;;;11.00;99.90;;;;;;5031276;28;20255;-60
2022/10/10 00:10:26;;;;;;;0.08;0.08;;;11.00;99.90;;;;;;5031683;28;20190;-60
2022/10/10 00:12:52;;;;;;;0.10;0.00;;;11.00;99.90;;;;;;5031730;28;20273;-60
2022/10/10 00:15:18;;;;;;;0.10;0.10;;;10.90;99.90;;;;;;5031734;28;20185;-60
2022/10/10 00:17:44;;;;;;;0.08;0.08;;;10.90;99.90;;;;;;5031025;28;20205;-60
2022/10/10 00:20:12;;;;;;;0.32;0.10;;;10.90;99.90;;;;;;5031447;28;20632;-60
2022/10/10 00:22:38;;;;;;;0.00;0.00;;;10.80;99.90;;;;;;5031461;28;20188;-60
2022/10/10 00:25:05;;;;;;;0.00;0.00;;;10.80;99.90;;;;;;5031803;28;20617;-60
2022/10/10 00:27:31;;;;;;;0.03;0.03;;;10.70;99.90;;;;;;5030985;28;20231;-60
2022/10/10 00:29:57;;;;;;;0.00;0.00;;;10.70;99.90;;;;;;5031267;28;20639;-61
2022/10/10 00:32:23;;;;;;;0.00;0.00;;;10.70;99.90;;;;;;5031290;28;20178;-61
2022/10/10 00:34:49;;;;;;;0.00;0.00;;;10.70;99.90;;;;;;5031876;28;20273;-61
2022/10/10 00:37:15;;;;;;;0.22;0.22;;;10.60;99.90;;;;;;5030741;28;20253;-60
2022/10/10 00:39:40;;;;;;;0.25;0.25;;;10.60;99.90;;;;;;5031504;28;20174;-61
2022/10/10 00:42:06;;;;;;;0.28;0.28;;;10.60;99.90;;;;;;5031045;28;20174;-61
2022/10/10 00:44:31;;;;;;;0.00;0.00;;;10.60;99.90;;;;;;5031186;28;20182;-60
2022/10/10 00:46:57;;;;;;;0.00;0.00;;;10.50;99.90;;;;;;5031552;28;20178;-61
2022/10/10 00:49:28;;;;;;;0.20;0.20;;;10.50;99.90;;;;;;5030255;28;20213;-60
2022/10/10 00:51:56;;;;;;;0.10;0.10;;;10.50;99.90;;;;;;5031097;28;20657;-60
2022/10/10 00:54:23;;;;;;;0.55;0.52;;;10.50;99.90;;;;;;5030860;28;20190;-60
2022/10/10 00:56:53;;;;;;;0.25;0.25;;;10.40;99.90;;;;;;5031217;28;20174;-60
2022/10/10 00:59:20;;;;;;;4.50;0.50;;;10.40;99.90;;;;;;5030935;28;20193;-60
2022/10/10 01:01:46;;;;;;;0.65;0.65;;;10.50;99.90;;;;;;5031298;28;20178;-60
2022/10/10 01:04:35;;;;;;;0.40;0.20;;;10.40;99.90;;;;;;5030921;28;20217;-60
2022/10/10 01:07:03;;;;;;;0.80;0.80;;;10.40;99.90;;;;;;5031448;28;20194;-60
2022/10/10 01:09:30;;;;;;;0.30;0.30;;;10.40;99.90;;;;;;5030135;28;20309;-60
2022/10/10 01:12:13;;;;;;;1.95;1.17;;;10.40;99.90;;;;;;5031267;28;20217;-60
2022/10/10 01:14:54;;;;;;;0.30;0.22;;;10.40;99.90;;;;;;5030919;28;20196;-60
2022/10/10 01:17:23;;;;;;;0.17;0.13;;;10.30;99.90;;;;;;5031119;28;20752;-60
2022/10/10 01:20:16;;;;;;;1.00;0.70;;;10.30;99.90;;;;;;5030662;28;20182;-60
2022/10/10 01:23:11;;;;;;;0.95;0.95;;;10.40;99.90;;;;;;5031068;28;20174;-60
2022/10/10 01:26:05;;;;;;;0.10;0.10;;;10.40;99.90;;;;;;5031275;28;20668;-60
2022/10/10 01:28:45;;;;;;;1.58;0.93;;;10.40;99.90;;;;;;5030568;28;20732;-60
2022/10/10 01:31:14;;;;;;;0.45;0.45;;;10.30;99.90;;;;;;5033123;28;20186;-60
2022/10/10 01:34:10;;;;;;;0.22;0.22;;;10.30;99.90;;;;;;5033929;28;20182;-60
2022/10/10 01:36:51;;;;;;;0.05;0.05;;;10.30;99.90;;;;;;5034597;28;20210;-60
2022/10/10 01:39:43;;;;;;;0.10;0.10;;;10.30;99.90;;;;;;5034339;28;20324;-60
2022/10/10 01:42:17;;;;;;;0.00;0.00;;;10.30;99.90;;;;;;5032233;28;20264;-60
2022/10/10 01:44:46;;;;;;;0.00;0.00;;;10.30;99.90;;;;;;5033990;28;20224;-60
2022/10/10 01:47:13;;;;;;;0.00;0.00;;;10.30;99.90;;;;;;5034463;28;20256;-60
2022/10/10 01:49:41;;;;;;;0.20;0.20;;;10.30;99.90;;;;;;5033940;28;20214;-60
2022/10/10 01:52:26;;;;;;;0.28;0.25;;;10.30;99.90;;;;;;5033696;28;20529;-60
2022/10/10 01:55:20;;;;;;;0.17;0.17;;;10.30;99.90;;;;;;5030436;28;20182;-60
2022/10/10 01:57:58;;;;;;;0.22;0.22;;;10.30;99.90;;;;;;5034251;28;20186;-60
2022/10/10 02:00:24;;;;;;;0.10;0.10;;;10.30;99.90;;;;;;5032477;28;20193;-60
2022/10/10 02:02:55;;;;;;;0.17;0.17;;;10.30;99.90;;;;;;5034090;28;20178;-60
2022/10/10 02:05:27;;;;;;;0.68;0.68;;;10.30;99.90;;;;;;5033301;28;20249;-60
2022/10/10 02:07:55;;;;;;;3.25;1.65;;;10.30;99.90;;;;;;5034053;28;20174;-60
2022/10/10 02:10:25;;;;;;;0.00;0.00;;;10.20;99.90;;;;;;5033658;28;20241;-60
2022/10/10 02:12:51;;;;;;;0.52;0.43;;;10.20;99.90;;;;;;5033710;28;20178;-60
2022/10/10 02:15:20;;;;;;;0.40;0.40;;;10.30;99.90;;;;;;5033527;28;20185;-61
2022/10/10 02:17:48;;;;;;;0.30;0.30;;;10.20;99.90;;;;;;5033521;28;20712;-60
2022/10/10 02:20:16;;;;;;;0.50;0.40;;;10.20;99.90;;;;;;5033455;28;20186;-60
2022/10/10 02:22:44;;;;;;;1.67;0.30;;;10.20;99.90;;;;;;5033461;28;20320;-61
2022/10/10 02:25:11;;;;;;;3.53;0.75;;;10.20;99.90;;;;;;5033512;28;20186;-60
2022/10/10 02:27:47;;;;;;;0.10;0.10;;;10.20;99.90;;;;;;5033474;28;20509;-60
2022/10/10 02:30:14;;;;;;;0.28;0.28;;;10.20;99.90;;;;;;5031118;28;20190;-60
2022/10/10 02:32:47;;;;;;;0.08;0.08;;;10.20;99.90;;;;;;5033224;28;20170;-60
2022/10/10 02:35:22;;;;;;;0.73;0.73;;;10.20;99.90;;;;;;5033091;28;20208;-60
2022/10/10 02:37:48;;;;;;;1.40;1.30;;;10.20;99.90;;;;;;5033231;28;20188;-60
2022/10/10 02:40:17;;;;;;;0.63;0.35;;;10.10;99.90;;;;;;5032752;28;20294;-60
2022/10/10 02:42:44;;;;;;;0.00;0.00;;;10.10;99.90;;;;;;5032539;28;20185;-60
2022/10/10 02:45:10;;;;;;;0.17;0.17;;;10.10;99.90;;;;;;5033240;28;20228;-60
2022/10/10 02:47:36;;;;;;;1.13;0.85;;;10.10;99.90;;;;;;5033300;28;20205;-60
2022/10/10 02:50:01;;;;;;;0.17;0.17;;;10.10;99.90;;;;;;5032907;28;20283;-60
2022/10/10 02:52:27;;;;;;;0.93;0.20;;;10.10;99.90;;;;;;5032765;28;20171;-60
2022/10/10 02:54:52;;;;;;;0.20;0.20;;;10.10;99.90;;;;;;5032699;28;20224;-60
2022/10/10 02:57:18;;;;;;;0.00;0.00;;;10.00;99.90;;;;;;5032749;28;20178;-60
2022/10/10 02:59:43;;;;;;;0.40;0.40;;;10.00;99.90;;;;;;5032654;28;20189;-60
2022/10/10 03:02:09;;;;;;;0.00;0.00;;;10.00;99.90;;;;;;5032365;28;20206;-61
2022/10/10 03:04:35;;;;;;;0.03;0.03;;;10.00;99.90;;;;;;5032413;28;20222;-60
2022/10/10 03:07:01;;;;;;;0.20;0.20;;;9.90;99.90;;;;;;5032868;28;20546;-60
2022/10/10 03:09:27;;;;;;;0.10;0.10;;;9.90;99.90;;;;;;5032374;28;20278;-60
2022/10/10 03:11:52;;;;;;;0.10;0.10;;;9.90;99.90;;;;;;5032405;28;20225;-59
2022/10/10 03:14:18;;;;;;;0.00;0.00;;;9.80;99.90;;;;;;5032585;28;20186;-60
2022/10/10 03:16:43;;;;;;;0.08;0.08;;;9.80;99.90;;;;;;5032505;28;20182;-60
2022/10/10 03:19:09;;;;;;;0.00;0.00;;;9.80;99.90;;;;;;5032044;28;20213;-60
2022/10/10 03:21:35;;;;;;;0.13;0.13;;;9.70;99.90;;;;;;5032680;28;20534;-60
2022/10/10 03:24:01;;;;;;;0.20;0.20;;;9.70;99.90;;;;;;5032350;28;20221;-60
2022/10/10 03:26:26;;;;;;;0.05;0.05;;;9.70;99.90;;;;;;5032112;28;20204;-60
2022/10/10 03:28:52;;;;;;;0.00;0.00;;;9.70;99.90;;;;;;5032035;28;20217;-61
2022/10/10 03:31:18;;;;;;;0.10;0.10;;;9.70;99.90;;;;;;5031938;28;20178;-60
2022/10/10 03:33:43;;;;;;;0.00;0.00;;;9.70;99.90;;;;;;5032049;28;20178;-60
2022/10/10 03:36:09;;;;;;;0.00;0.00;;;9.70;99.90;;;;;;5032391;28;20228;-60
2022/10/10 03:38:34;;;;;;;0.00;0.00;;;9.70;99.90;;;;;;5032066;28;20397;-60
2022/10/10 03:41:00;;;;;;;0.00;0.00;;;9.60;99.90;;;;;;5032044;28;20194;-60
2022/10/10 03:43:25;;;;;;;0.25;0.25;;;9.60;99.90;;;;;;5031829;28;20170;-59
2022/10/10 03:45:51;;;;;;;0.10;0.10;;;9.60;99.90;;;;;;5031866;28;20185;-60
2022/10/10 03:48:17;;;;;;;0.00;0.00;;;9.60;99.90;;;;;;5031447;28;20589;-59
2022/10/10 03:50:42;;;;;;;0.00;0.00;;;9.60;99.90;;;;;;5031950;28;20188;-59
2022/10/10 03:53:09;;;;;;;0.17;0.17;;;9.60;99.90;;;;;;5031327;28;20182;-60
2022/10/10 03:55:34;;;;;;;0.38;0.38;;;9.60;99.90;;;;;;5031954;28;20210;-60
2022/10/10 03:58:00;;;;;;;0.00;0.00;;;9.60;99.90;;;;;;5031303;28;20226;-59
2022/10/10 04:00:25;;;;;;;0.00;0.00;;;9.60;99.90;;;;;;5031398;28;20193;-59
2022/10/10 04:02:52;;;;;;;0.10;0.10;;;9.60;99.90;;;;;;5031227;28;20204;-59
2022/10/10 04:05:18;;;;;;;0.10;0.10;;;9.60;99.90;;;;;;5031490;28;20244;-62
2022/10/10 04:07:43;;;;;;;0.10;0.10;;;9.60;99.90;;;;;;5031545;28;20252;-62
2022/10/10 04:10:09;;;;;;;0.00;0.00;;;9.60;99.90;;;;;;5031509;28;20225;-60
2022/10/10 04:12:35;;;;;;;0.00;0.00;;;9.60;99.90;;;;;;5031533;28;20188;-59
2022/10/10 04:15:00;;;;;;;0.05;0.05;;;9.60;99.90;;;;;;5030346;28;20255;-58
2022/10/10 04:17:26;;;;;;;0.17;0.17;;;9.60;99.90;;;;;;5031697;28;20265;-59
2022/10/10 04:19:51;;;;;;;0.20;0.20;;;9.60;99.90;;;;;;5031534;28;20186;-59
2022/10/10 04:22:17;;;;;;;0.10;0.10;;;9.60;99.90;;;;;;5031528;28;20182;-61
2022/10/10 04:24:43;;;;;;;0.15;0.15;;;9.50;99.90;;;;;;5031596;28;20197;-61
2022/10/10 04:27:10;;;;;;;0.00;0.00;;;9.50;99.90;;;;;;5030882;28;20664;-61
2022/10/10 04:29:35;;;;;;;0.20;0.20;;;9.40;99.90;;;;;;5031645;28;20210;-60
2022/10/10 04:32:01;;;;;;;0.00;0.00;;;9.40;99.90;;;;;;5031808;28;20173;-60
2022/10/10 04:34:27;;;;;;;0.00;0.00;;;9.40;99.90;;;;;;5031388;28;20182;-60
2022/10/10 04:36:52;;;;;;;0.25;0.10;;;9.40;99.90;;;;;;5031588;28;20178;-60
2022/10/10 04:39:18;;;;;;;0.10;0.10;;;9.40;99.90;;;;;;5031297;28;20277;-60
2022/10/10 04:41:48;;;;;;;0.00;0.00;;;9.30;99.90;;;;;;5031489;28;20170;-60
2022/10/10 04:44:15;;;;;;;0.20;0.20;;;9.30;99.90;;;;;;5031473;28;20278;-60
2022/10/10 04:46:40;;;;;;;0.00;0.00;;;9.30;99.90;;;;;;5031616;28;20174;-60
2022/10/10 04:49:06;;;;;;;0.00;0.00;;;9.30;99.90;;;;;;5031092;28;20224;-60
2022/10/10 04:51:31;;;;;;;0.47;0.40;;;9.30;99.90;;;;;;5030938;28;20212;-60
2022/10/10 04:53:57;;;;;;;0.00;0.00;;;9.30;99.90;;;;;;5031206;28;20194;-60
2022/10/10 04:56:24;;;;;;;0.10;0.10;;;9.30;99.90;;;;;;5030854;28;20174;-60
2022/10/10 04:58:50;;;;;;;0.00;0.00;;;9.30;99.90;;;;;;5029990;28;20188;-60
2022/10/10 05:01:16;;;;;;;0.00;0.00;;;9.30;99.90;;;;;;5031389;28;20260;-60
2022/10/10 05:03:41;;;;;;;0.00;0.00;;;9.30;99.90;;;;;;5031565;28;20228;-60
2022/10/10 05:06:07;;;;;;;0.00;0.00;;;9.30;99.90;;;;;;5035271;28;20221;-60
2022/10/10 05:08:32;;;;;;;0.05;0.05;;;9.20;99.90;;;;;;5035292;28;20214;-60
2022/10/10 05:10:58;;;;;;;0.30;0.20;;;9.30;99.90;;;;;;5035462;28;20664;-60
2022/10/10 05:13:23;;;;;;;0.00;0.00;;;9.20;99.90;;;;;;5035284;28;20272;-60
2022/10/10 05:15:51;;;;;;;1.17;0.20;;;9.20;99.90;;;;;;5035233;28;20178;-60
2022/10/10 05:18:17;;;;;;;0.03;0.03;;;9.20;99.90;;;;;;5035196;28;20208;-60
2022/10/10 05:20:46;;;;;;;0.00;0.00;;;9.20;99.90;;;;;;5035246;28;20552;-60
2022/10/10 05:23:12;;;;;;;0.10;0.10;;;9.20;99.90;;;;;;5034735;28;20178;-60
2022/10/10 05:25:38;;;;;;;0.00;0.00;;;9.20;99.90;;;;;;5034591;28;20194;-60
2022/10/10 05:28:03;;;;;;;0.65;0.28;;;9.20;99.90;;;;;;5034830;28;20174;-60
2022/10/10 05:30:29;;;;;;;0.30;0.30;;;9.20;99.90;;;;;;5033854;28;20637;-60
2022/10/10 05:32:54;;;;;;;0.00;0.00;;;9.20;99.90;;;;;;5034781;28;20643;-60
2022/10/10 05:35:20;;;;;;;0.30;0.05;;;9.10;99.90;;;;;;5034850;28;20228;-60
2022/10/10 05:37:45;;;;;;;0.00;0.00;;;9.10;99.90;;;;;;5035018;28;20666;-61
2022/10/10 05:40:11;;;;;;;0.20;0.20;;;9.10;99.90;;;;;;5034725;28;20783;-60
2022/10/10 05:42:36;;;;;;;0.00;0.00;;;9.10;99.90;;;;;;5034987;28;20170;-60
2022/10/10 05:45:02;;;;;;;0.05;0.05;;;9.10;99.90;;;;;;5034687;28;20626;-60
2022/10/10 05:47:28;;;;;;;0.00;0.00;;;9.10;99.90;;;;;;5034715;28;20193;-60
2022/10/10 05:49:53;;;;;;;0.00;0.00;;;9.00;99.90;;;;;;5034745;28;20214;-60
2022/10/10 05:52:19;;;;;;;0.00;0.00;;;9.00;99.90;;;;;;5034553;28;20190;-60
2022/10/10 05:54:44;;;;;;;0.00;0.00;;;9.00;99.90;;;;;;5034709;28;20328;-60
2022/10/10 05:57:10;;;;;;;0.00;0.00;;;9.00;99.90;;;;;;5034436;28;20170;-60
2022/10/10 05:59:35;;;;;;;0.00;0.00;;;9.00;99.90;;;;;;5034646;28;20166;-60
2022/10/10 06:02:01;;;;;;;0.00;0.00;;;9.00;99.90;;;;;;5033880;28;20530;-60
2022/10/10 06:04:26;;;;;;;0.10;0.10;;;9.00;99.90;;;;;;5034073;28;20237;-60
2022/10/10 06:06:52;;;;;;;0.00;0.00;;;9.10;99.90;;;;;;5034088;28;20178;-60
2022/10/10 06:09:17;;;;;;;0.00;0.00;;;9.10;99.90;;;;;;5034390;28;20221;-60
2022/10/10 06:11:43;;;;;;;0.10;0.10;;;9.20;99.90;;;;;;5034720;28;20186;-60
2022/10/10 06:14:09;;;;;;;0.00;0.00;;;9.30;99.90;;;;;;5034272;28;20193;-60
2022/10/10 06:16:35;;;;;;;0.10;0.10;;;9.40;99.90;;;;;;5034245;28;20260;-60
2022/10/10 06:19:02;;;;;;;0.00;0.00;;;9.40;99.90;;;;;;5034333;28;20198;-60
2022/10/10 06:21:27;;;;;;;0.00;0.00;;;9.50;99.90;;;;;;5034311;28;20220;-60
2022/10/10 06:23:53;;;;;;;0.00;0.00;;;9.70;99.90;;;;;;5034143;28;20582;-60
2022/10/10 06:26:18;;;;;;;0.00;0.00;;;9.80;99.90;;;;;;5034079;28;20185;-60
2022/10/10 06:28:44;;;;;;;0.00;0.00;;;9.90;99.90;;;;;;5033952;28;20214;-60
2022/10/10 06:31:12;;;;;;;0.00;0.00;;;10.10;99.90;;;;;;5033788;28;20706;-60
2022/10/10 06:33:39;;;;;;;0.05;0.05;;;10.20;99.90;;;;;;5033964;28;20175;-60
2022/10/10 06:36:07;;;;;;;0.00;0.00;;;10.30;99.90;;;;;;5033923;28;20657;-60
2022/10/10 06:38:38;;;;;;;0.00;0.00;;;10.40;99.90;;;;;;5033838;28;20463;-60
2022/10/10 06:41:04;;;;;;;0.00;0.00;;;10.40;99.90;;;;;;5034016;28;20185;-60
2022/10/10 06:43:31;;;;;;;0.00;0.00;;;10.50;99.90;;;;;;5033782;28;20312;-60
2022/10/10 06:45:57;;;;;;;0.03;0.03;;;10.50;99.90;;;;;;5033927;28;20648;-60
2022/10/10 06:48:23;;;;;;;0.00;0.00;;;10.60;99.90;;;;;;5033730;28;20260;-60
2022/10/10 06:51:16;;;;;;;0.00;0.00;;;10.70;99.90;;;;;;5033711;28;20190;-60
2022/10/10 06:53:42;;;;;;;0.00;0.00;;;10.80;99.90;;;;;;5032858;28;20209;-60
2022/10/10 06:56:16;;;;;;;0.00;0.00;;;11.20;99.90;;;;;;5032496;28;20213;-60
2022/10/10 06:58:42;;;;;;;0.95;0.10;;;11.60;99.90;;;;;;5033868;28;20187;-60
2022/10/10 07:01:09;;;;;;;0.00;0.00;;;11.90;99.90;;;;;;5033618;28;20313;-60
2022/10/10 07:03:35;;;;;;;0.00;0.00;;;12.00;99.90;;;;;;5033656;28;20247;-61
2022/10/10 07:06:02;;;;;;;0.00;0.00;;;12.10;99.90;;;;;;5033376;28;20620;-61
2022/10/10 07:08:28;;;;;;;0.05;0.05;;;12.30;99.90;;;;;;5033407;28;20202;-61
2022/10/10 07:10:54;;;;;;;0.00;0.00;;;12.60;99.90;;;;;;5033485;28;20185;-61
2022/10/10 07:13:20;;;;;;;0.10;0.10;;;13.00;99.90;;;;;;5033332;28;20182;-61
2022/10/10 07:15:46;;;;;;;0.00;0.00;;;13.20;99.90;;;;;;5033368;28;20638;-61
2022/10/10 07:18:12;;;;;;;0.00;0.00;;;13.40;99.90;;;;;;5033032;28;20641;-61
2022/10/10 07:20:38;;;;;;;0.05;0.05;;;13.40;99.90;;;;;;5033243;28;20174;-61
2022/10/10 07:23:04;;;;;;;0.00;0.00;;;13.50;99.90;;;;;;5033157;28;20192;-60
2022/10/10 07:25:30;;;;;;;0.15;0.00;;;13.60;99.90;;;;;;5033058;28;20174;-61
2022/10/10 07:27:55;;;;;;;0.00;0.00;;;13.70;99.90;;;;;;5032364;28;20182;-61
2022/10/10 07:30:22;;;;;;;0.20;0.10;;;13.70;99.90;;;;;;5033010;28;20189;-61
2022/10/10 07:32:48;;;;;;;0.17;0.17;;;13.80;99.90;;;;;;5033056;28;20182;-61
2022/10/10 07:35:14;;;;;;;0.03;0.03;;;14.00;99.90;;;;;;5032942;28;20537;-60
2022/10/10 07:37:39;;;;;;;0.00;0.00;;;14.20;99.90;;;;;;5032894;28;20174;-60
2022/10/10 07:40:07;;;;;;;0.05;0.05;;;14.40;99.90;;;;;;5032817;28;20519;-61
2022/10/10 07:42:33;;;;;;;0.00;0.00;;;14.50;99.90;;;;;;5032793;28;20189;-61
2022/10/10 07:44:59;;;;;;;0.52;0.20;;;14.50;99.90;;;;;;5032729;28;20596;-60
2022/10/10 07:47:24;;;;;;;0.00;0.00;;;14.60;99.90;;;;;;5032850;28;20283;-61
2022/10/10 07:49:50;;;;;;;0.43;0.20;;;14.60;99.90;;;;;;5032575;28;20218;-60
2022/10/10 07:52:15;;;;;;;0.03;0.03;;;14.70;99.90;;;;;;5032569;28;20174;-60
2022/10/10 07:54:41;;;;;;;2.45;0.28;;;14.80;99.90;;;;;;5032592;28;20637;-60
2022/10/10 07:57:07;;;;;;;0.00;0.00;;;14.90;99.90;;;;;;5032442;28;20185;-60
2022/10/10 07:59:32;;;;;;;0.00;0.00;;;15.00;99.90;;;;;;5032415;28;20174;-60
2022/10/10 08:01:58;;;;;;;0.45;0.00;;;15.20;99.90;;;;;;5031288;28;20253;-60
2022/10/10 08:04:23;;;;;;;0.00;0.00;;;15.40;99.90;;;;;;5032254;28;20234;-61
2022/10/10 08:06:49;;;;;;;0.08;0.05;;;16.00;99.90;;;;;;5032392;28;20182;-61
2022/10/10 08:09:14;;;;;;;0.00;0.00;;;16.50;99.90;;;;;;5032233;28;20325;-61
2022/10/10 08:11:40;;;;;;;0.20;0.15;;;17.00;99.90;;;;;;5032340;28;20220;-59
2022/10/10 08:14:05;;;;;;;0.00;0.00;;;17.60;99.90;;;;;;5032258;28;20186;-59
2022/10/10 08:16:31;;;;;;;0.10;0.10;;;18.10;99.90;;;;;;5032223;28;20178;-59
2022/10/10 08:18:57;;;;;;;0.00;0.00;;;18.40;99.90;;;;;;5032160;28;20267;-59
2022/10/10 08:21:22;;;;;;;0.00;0.00;;;18.90;99.90;;;;;;5032039;28;20189;-59
2022/10/10 08:23:49;;;;;;;0.13;0.13;;;19.50;99.90;;;;;;5032190;28;20186;-59
2022/10/10 08:26:16;;;;;;;0.00;0.00;;;19.80;98.00;;;;;;5031968;28;20185;-59
2022/10/10 08:28:42;;;;;;;0.08;0.08;;;19.80;98.20;;;;;;5032078;28;20210;-59
2022/10/10 08:31:13;;;;;;;0.60;0.38;;;19.80;97.60;;;;;;5031936;28;20174;-59
2022/10/10 08:33:40;;;;;;;0.00;0.00;;;19.80;97.30;;;;;;5032033;28;20185;-59
2022/10/10 08:36:08;;;;;;;0.10;0.10;;;20.00;97.60;;;;;;5031883;28;20253;-59
2022/10/10 08:38:35;;;;;;;0.00;0.00;;;20.40;97.40;;;;;;5030999;28;20178;-59
2022/10/10 08:41:15;;;;;;;0.08;0.08;;;20.70;97.20;;;;;;5031889;28;20190;-59
2022/10/10 08:43:46;;;;;;;0.00;0.00;;;20.80;96.00;;;;;;5031953;28;20289;-59
2022/10/10 08:46:20;;;;;;;0.10;0.10;;;20.70;95.50;;;;;;5031744;28;20174;-59
2022/10/10 08:48:48;;;;;;;0.80;0.30;;;20.50;95.70;;;;;;5031753;28;20364;-59
2022/10/10 08:51:23;;;;;;;0.00;0.00;;;20.30;96.10;;;;;;5031574;28;20190;-59
2022/10/10 08:53:52;;;;;;;0.00;0.00;;;20.20;96.80;;;;;;5031673;28;20189;-59
2022/10/10 08:56:28;;;;;;;0.00;0.00;;;20.30;96.70;;;;;;5031602;28;20174;-59
2022/10/10 08:58:59;;;;;;;0.00;0.00;;;20.30;96.10;;;;;;5031631;28;20263;-59
2022/10/10 09:01:33;;;;;;;0.00;0.00;;;20.10;96.00;;;;;;5031781;28;20174;-59
2022/10/10 09:04:02;;;;;;;0.00;0.00;;;20.20;96.80;;;;;;5031517;28;20178;-59
2022/10/10 09:06:49;;;;;;;0.00;0.00;;;20.40;96.60;;;;;;5031760;28;20648;-59
2022/10/10 09:09:30;;;;;;;0.45;0.28;;;20.40;96.00;;;;;;5031446;28;20210;-59
2022/10/10 09:12:19;;;;;;;0.08;0.08;;;20.50;96.40;;;;;;5030617;28;20182;-59
2022/10/10 09:14:57;;;;;;;0.00;0.00;;;20.50;96.00;;;;;;5031651;28;20170;-59
2022/10/10 09:17:59;;;;;;;0.38;0.38;;;20.60;96.20;;;;;;5031617;28;20178;-59
2022/10/10 09:20:59;;;;;;;0.00;0.00;;;20.80;95.60;;;;;;5012927;28;20205;-59
2022/10/10 09:23:31;;;;;;;0.00;0.00;;;20.80;95.30;;;;;;5031421;28;20231;-59
2022/10/10 09:26:08;;;;;;;0.20;0.20;;;20.90;95.20;;;;;;5031571;28;20176;-59
2022/10/10 09:28:48;;;;;;;0.00;0.00;;;20.80;95.00;;;;;;5011664;28;20753;-59
2022/10/10 09:31:27;;;;;;;0.22;0.22;;;21.00;95.80;;;;;;5011466;28;20187;-59
2022/10/10 09:33:54;;;;;;;0.00;0.00;;;21.20;95.70;;;;;;5011563;28;20237;-59
2022/10/10 09:36:27;;;;;;;0.00;0.00;;;21.40;95.20;;;;;;5011714;28;20202;-59
2022/10/10 09:38:59;;;;;;;0.00;0.00;;;21.60;95.10;;;;;;5011668;28;20171;-59
2022/10/10 09:41:33;;;;;;;0.10;0.10;;;21.60;94.70;;;;;;5011536;28;20650;-59
2022/10/10 09:44:04;;;;;;;0.03;0.03;;;21.70;94.30;;;;;;5011621;28;20174;-59
2022/10/10 09:46:29;;;;;;;0.13;0.10;;;21.80;93.90;;;;;;5011442;28;20183;-61
2022/10/10 09:48:56;;;;;;;0.00;0.00;;;21.70;93.10;;;;;;5011447;28;20225;-61
2022/10/10 09:51:22;;;;;;;0.00;0.00;;;21.80;94.10;;;;;;5014101;28;20582;-62
2022/10/10 09:53:49;;;;;;;0.00;0.00;;;21.70;94.10;;;;;;5015096;28;20220;-61
2022/10/10 09:56:18;;;;;;;0.00;0.00;;;21.70;93.60;;;;;;5015016;28;20269;-61
2022/10/10 09:58:50;;;;;;;0.00;0.00;;;22.00;93.90;;;;;;5015046;28;20194;-61
2022/10/10 10:01:24;;;;;;;0.00;0.00;;;22.20;93.70;;;;;;5014924;28;20183;-61
2022/10/10 10:04:08;;;;;;;0.00;0.00;;;22.40;93.10;;;;;;5014724;28;20262;-60
2022/10/10 10:06:34;;;;;;;0.03;0.03;;;22.50;93.00;;;;;;5014947;28;20577;-60
2022/10/10 10:09:02;;;;;;;0.00;0.00;;;22.50;92.60;;;;;;5014735;28;20222;-61
2022/10/10 10:11:32;;;;;;;0.00;0.00;;;22.60;93.70;;;;;;5014789;28;20585;-61
2022/10/10 10:14:01;;;;;;;0.00;0.00;;;22.70;92.80;;;;;;5014787;28;20175;-61
2022/10/10 10:16:32;;;;;;;0.22;0.15;;;22.70;92.70;;;;;;5014653;28;20269;-61
2022/10/10 10:18:58;;;;;;;0.10;0.10;;;22.80;92.60;;;;;;5022406;28;20209;-61
2022/10/10 10:21:23;;;;;;;0.00;0.00;;;22.80;92.50;;;;;;5034339;28;20641;-61
2022/10/10 10:23:50;;;;;;;0.00;0.00;;;23.10;92.80;;;;;;5034257;28;20181;-61
2022/10/10 10:26:17;;;;;;;0.22;0.08;;;23.30;92.80;;;;;;5034139;28;20714;-61
2022/10/10 10:28:43;;;;;;;0.00;0.00;;;23.40;92.50;;;;;;5034176;28;20225;-61
2022/10/10 10:31:29;;;;;;;0.00;0.00;;;23.60;91.70;;;;;;5034079;28;20608;-61
2022/10/10 10:34:21;;;;;;;0.85;0.77;;;23.50;92.20;;;;;;5034316;28;20560;-61
2022/10/10 10:37:14;;;;;;;0.00;0.00;;;23.40;91.50;;;;;;5034209;28;20328;-61
2022/10/10 10:39:48;;;;;;;0.10;0.10;;;23.40;92.00;;;;;;5034070;28;20694;-61
2022/10/10 10:42:25;;;;;;;0.00;0.00;;;23.10;92.30;;;;;;5034006;28;20188;-60
2022/10/10 10:45:15;;;;;;;0.03;0.03;;;23.00;92.80;;;;;;5033923;28;20256;-60
2022/10/10 10:47:59;;;;;;;0.20;0.20;;;23.00;93.00;;;;;;5033861;28;20707;-61
2022/10/10 10:50:33;;;;;;;0.00;0.00;;;23.00;93.10;;;;;;5033807;28;20225;-60
2022/10/10 10:53:37;;;;;;;0.00;0.00;;;23.00;92.90;;;;;;5033866;28;20220;-60
2022/10/10 10:56:39;;;;;;;0.00;0.00;;;23.00;92.30;;;;;;5032579;28;20565;-61
2022/10/10 10:59:29;;;;;;;0.00;0.00;;;22.90;92.60;;;;;;5033634;28;20568;-61
2022/10/10 11:02:07;;;;;;;0.03;0.03;;;22.90;93.20;;;;;;5032664;28;20175;-61
2022/10/10 11:04:38;;;;;;;0.00;0.00;;;22.90;93.00;;;;;;5033390;28;20226;-61
2022/10/10 11:07:16;;;;;;;0.03;0.03;;;23.00;93.40;;;;;;5033531;28;20182;-61
2022/10/10 11:09:50;;;;;;;0.00;0.00;;;23.00;92.80;;;;;;5033542;28;20288;-61
2022/10/10 11:12:50;;;;;;;0.15;0.15;;;22.90;93.30;;;;;;5033310;28;20190;-61
2022/10/10 11:15:55;;;;;;;0.00;0.00;;;22.90;93.10;;;;;;5033257;28;20544;-60
2022/10/10 11:18:35;;;;;;;0.00;0.00;;;22.90;92.70;;;;;;5022091;28;20194;-61
2022/10/10 11:21:22;;;;;;;0.00;0.00;;;23.00;93.00;;;;;;5033366;28;20269;-61
2022/10/10 11:24:09;;;;;;;0.00;0.00;;;23.10;92.80;;;;;;5033316;28;20253;-60
2022/10/10 11:26:46;;;;;;;0.00;0.00;;;23.20;92.70;;;;;;5033175;28;20178;-60
2022/10/10 11:29:23;;;;;;;0.10;0.10;;;23.20;92.40;;;;;;5032898;28;20678;-60
2022/10/10 11:31:54;;;;;;;0.00;0.00;;;23.30;92.90;;;;;;5033186;28;20208;-60
2022/10/10 11:34:32;;;;;;;0.00;0.00;;;23.60;92.30;;;;;;5032938;28;20182;-60
2022/10/10 11:37:10;;;;;;;0.00;0.00;;;24.00;92.00;;;;;;5033026;28;20272;-60
2022/10/10 11:39:44;;;;;;;0.00;0.00;;;24.10;91.30;;;;;;5032924;28;20181;-60
2022/10/10 11:42:18;;;;;;;0.00;0.00;;;24.00;92.10;;;;;;5032777;28;20173;-60
2022/10/10 11:44:58;;;;;;;0.00;0.00;;;24.00;91.70;;;;;;5032945;28;20193;-61
2022/10/10 11:47:41;;;;;;;0.00;0.00;;;24.10;91.90;;;;;;5032618;28;20228;-61
2022/10/10 11:50:14;;;;;;;0.35;0.35;;;24.00;91.30;;;;;;5031485;28;20225;-61
2022/10/10 11:52:59;;;;;;;0.22;0.00;;;23.90;91.30;;;;;;5032533;28;20204;-61
2022/10/10 11:55:46;;;;;;;0.00;0.00;;;23.80;91.60;;;;;;5032623;28;20208;-61
2022/10/10 11:58:15;;;;;;;0.00;0.00;;;23.90;91.20;;;;;;5032318;28;20251;-62
2022/10/10 12:00:50;;;;;;;0.00;0.00;;;23.80;91.00;;;;;;5032393;28;20634;-61
2022/10/10 12:03:16;;;;;;;0.10;0.10;;;23.70;91.10;;;;;;5032490;28;20188;-61
2022/10/10 12:06:20;;;;;;;0.00;0.00;;;23.60;91.20;;;;;;5032355;28;20230;-61
2022/10/10 12:08:54;;;;;;;0.00;0.00;;;23.40;91.30;;;;;;5019973;28;20355;-61
2022/10/10 12:11:36;;;;;;;0.00;0.00;;;23.30;92.10;;;;;;5032403;28;20537;-61
2022/10/10 12:14:12;;;;;;;0.00;0.00;;;23.20;91.10;;;;;;5031894;28;20182;-61
2022/10/10 12:16:38;;;;;;;0.00;0.00;;;23.30;91.50;;;;;;5032282;28;20173;-61
2022/10/10 12:19:12;;;;;;;0.00;0.00;;;23.50;91.10;;;;;;5031816;28;20193;-61
2022/10/10 12:22:03;;;;;;;0.00;0.00;;;23.50;90.40;;;;;;5031657;28;20169;-61
2022/10/10 12:24:34;;;;;;;0.10;0.10;;;23.50;90.90;;;;;;5032060;28;20174;-61
2022/10/10 12:26:59;;;;;;;0.38;0.10;;;23.50;90.80;;;;;;5031807;28;20551;-61
2022/10/10 12:29:42;;;;;;;0.00;0.00;;;23.60;90.00;;;;;;5031630;28;20218;-61
2022/10/10 12:32:13;;;;;;;0.10;0.00;;;23.70;88.40;;;;;;5031907;28;20200;-61
2022/10/10 12:34:48;;;;;;;0.00;0.00;;;23.70;89.70;;;;;;5031697;28;20627;-61
2022/10/10 12:37:30;;;;;;;0.00;0.00;;;23.80;86.50;;;;;;5031645;28;20173;-61
2022/10/10 12:40:04;;;;;;;0.10;0.10;;;23.60;86.60;;;;;;5031848;28;20186;-61
2022/10/10 12:42:45;;;;;;;0.00;0.00;;;23.60;86.10;;;;;;5031474;28;20186;-61
2022/10/10 12:45:29;;;;;;;0.00;0.00;;;23.60;86.80;;;;;;5030986;28;20309;-62
2022/10/10 12:47:57;;;;;;;0.00;0.00;;;23.60;87.40;;;;;;5031516;28;20186;-61
2022/10/10 12:50:28;;;;;;;0.10;0.10;;;23.70;87.60;;;;;;5031398;28;20210;-61
2022/10/10 12:53:15;;;;;;;0.30;0.30;;;23.70;87.40;;;;;;5031463;28;20265;-61
2022/10/10 12:55:46;;;;;;;0.00;0.00;;;23.70;86.40;;;;;;5031615;28;20174;-61
2022/10/10 12:58:25;;;;;;;0.10;0.10;;;23.40;84.40;;;;;;5031268;28;20269;-61
2022/10/10 13:00:52;;;;;;;1.38;0.47;;;23.30;86.30;;;;;;5031543;28;20173;-61
2022/10/10 13:03:27;;;;;;;0.30;0.20;;;23.20;85.60;;;;;;5031344;28;20220;-61
2022/10/10 13:05:54;;;;;;;0.00;0.00;;;23.00;86.60;;;;;;5031183;28;20586;-61
2022/10/10 13:08:26;;;;;;;0.00;0.00;;;23.00;85.30;;;;;;5031503;28;20518;-61